sensor_id;sensor_type;location;lat;lon;timestamp;P1;durP1;ratioP1;P2;durP2;ratioP2
78614;SDS011;67937;52.488;20.952;2023-12-14T00:01:30;16.50;;;8.20;;
78614;SDS011;67937;52.488;20.952;2023-12-14T00:03:58;17.90;;;9.10;;
78614;SDS011;67937;52.488;20.952;2023-12-14T00:06:25;20.70;;;8.40;;
78614;SDS011;67937;52.488;20.952;2023-12-14T00:08:53;14.30;;;7.20;;
78614;SDS011;67937;52.488;20.952;2023-12-14T00:11:21;16.60;;;8.20;;
78614;SDS011;67937;52.488;20.952;2023-12-14T00:13:49;19.30;;;8.80;;
78614;SDS011;67937;52.488;20.952;2023-12-14T00:16:17;15.60;;;8.80;;
78614;SDS011;67937;52.488;20.952;2023-12-14T00:18:45;17.60;;;8.50;;
78614;SDS011;67937;52.488;20.952;2023-12-14T00:21:13;16.50;;;8.90;;
78614;SDS011;67937;52.488;20.952;2023-12-14T00:23:40;15.00;;;7.80;;
78614;SDS011;67937;52.488;20.952;2023-12-14T00:26:08;15.80;;;8.10;;
78614;SDS011;67937;52.488;20.952;2023-12-14T00:28:36;16.00;;;7.50;;
78614;SDS011;67937;52.488;20.952;2023-12-14T00:31:04;16.80;;;8.80;;
78614;SDS011;67937;52.488;20.952;2023-12-14T00:33:32;14.80;;;8.10;;
78614;SDS011;67937;52.488;20.952;2023-12-14T00:36:00;16.90;;;8.00;;
78614;SDS011;67937;52.488;20.952;2023-12-14T00:38:28;15.60;;;7.80;;
78614;SDS011;67937;52.488;20.952;2023-12-14T00:40:56;16.00;;;7.70;;
78614;SDS011;67937;52.488;20.952;2023-12-14T00:43:23;17.50;;;7.80;;
78614;SDS011;67937;52.488;20.952;2023-12-14T00:45:51;16.10;;;7.80;;
78614;SDS011;67937;52.488;20.952;2023-12-14T00:48:19;15.10;;;8.70;;
78614;SDS011;67937;52.488;20.952;2023-12-14T00:50:47;12.50;;;6.50;;
78614;SDS011;67937;52.488;20.952;2023-12-14T00:53:15;12.60;;;7.00;;
78614;SDS011;67937;52.488;20.952;2023-12-14T00:55:43;15.60;;;6.70;;
78614;SDS011;67937;52.488;20.952;2023-12-14T00:58:12;11.90;;;7.10;;
78614;SDS011;67937;52.488;20.952;2023-12-14T01:00:41;11.70;;;6.20;;
78614;SDS011;67937;52.488;20.952;2023-12-14T01:03:09;13.20;;;7.40;;
78614;SDS011;67937;52.488;20.952;2023-12-14T01:06:26;12.60;;;7.00;;
78614;SDS011;67937;52.488;20.952;2023-12-14T01:08:54;16.70;;;7.90;;
78614;SDS011;67937;52.488;20.952;2023-12-14T01:11:22;16.20;;;7.60;;
78614;SDS011;67937;52.488;20.952;2023-12-14T01:13:50;14.10;;;7.70;;
78614;SDS011;67937;52.488;20.952;2023-12-14T01:16:18;14.50;;;7.20;;
78614;SDS011;67937;52.488;20.952;2023-12-14T01:18:45;13.80;;;6.80;;
78614;SDS011;67937;52.488;20.952;2023-12-14T01:21:13;13.80;;;8.10;;
78614;SDS011;67937;52.488;20.952;2023-12-14T01:23:41;11.40;;;7.00;;
78614;SDS011;67937;52.488;20.952;2023-12-14T01:26:10;16.00;;;7.20;;
78614;SDS011;67937;52.488;20.952;2023-12-14T01:28:38;14.40;;;8.40;;
78614;SDS011;67937;52.488;20.952;2023-12-14T01:31:05;17.70;;;7.70;;
78614;SDS011;67937;52.488;20.952;2023-12-14T01:33:33;15.00;;;7.60;;
78614;SDS011;67937;52.488;20.952;2023-12-14T01:36:01;17.80;;;7.60;;
78614;SDS011;67937;52.488;20.952;2023-12-14T01:38:29;15.20;;;9.00;;
78614;SDS011;67937;52.488;20.952;2023-12-14T01:40:57;17.00;;;8.20;;
78614;SDS011;67937;52.488;20.952;2023-12-14T01:43:25;18.60;;;7.60;;
78614;SDS011;67937;52.488;20.952;2023-12-14T01:45:53;17.60;;;8.90;;
78614;SDS011;67937;52.488;20.952;2023-12-14T01:48:21;16.80;;;9.10;;
78614;SDS011;67937;52.488;20.952;2023-12-14T01:50:49;16.20;;;8.80;;
78614;SDS011;67937;52.488;20.952;2023-12-14T01:53:17;20.30;;;9.00;;
78614;SDS011;67937;52.488;20.952;2023-12-14T01:55:44;18.40;;;8.60;;
78614;SDS011;67937;52.488;20.952;2023-12-14T01:58:12;20.10;;;9.20;;
78614;SDS011;67937;52.488;20.952;2023-12-14T02:00:45;20.20;;;9.50;;
78614;SDS011;67937;52.488;20.952;2023-12-14T02:03:20;20.20;;;9.20;;
78614;SDS011;67937;52.488;20.952;2023-12-14T02:05:48;19.20;;;10.00;;
78614;SDS011;67937;52.488;20.952;2023-12-14T02:08:16;21.00;;;10.10;;
78614;SDS011;67937;52.488;20.952;2023-12-14T02:10:44;20.90;;;9.10;;
78614;SDS011;67937;52.488;20.952;2023-12-14T02:13:12;17.60;;;8.70;;
78614;SDS011;67937;52.488;20.952;2023-12-14T02:15:41;20.40;;;9.40;;
78614;SDS011;67937;52.488;20.952;2023-12-14T02:18:09;21.50;;;10.60;;
78614;SDS011;67937;52.488;20.952;2023-12-14T02:20:37;24.10;;;9.50;;
78614;SDS011;67937;52.488;20.952;2023-12-14T02:23:05;18.80;;;9.40;;
78614;SDS011;67937;52.488;20.952;2023-12-14T02:25:33;22.90;;;9.00;;
78614;SDS011;67937;52.488;20.952;2023-12-14T02:28:01;21.70;;;9.80;;
78614;SDS011;67937;52.488;20.952;2023-12-14T02:30:29;22.00;;;9.40;;
78614;SDS011;67937;52.488;20.952;2023-12-14T02:32:57;28.40;;;11.50;;
78614;SDS011;67937;52.488;20.952;2023-12-14T02:35:25;22.30;;;11.00;;
78614;SDS011;67937;52.488;20.952;2023-12-14T02:37:53;21.90;;;9.40;;
78614;SDS011;67937;52.488;20.952;2023-12-14T02:40:21;24.50;;;11.30;;
78614;SDS011;67937;52.488;20.952;2023-12-14T02:42:49;22.70;;;10.50;;
78614;SDS011;67937;52.488;20.952;2023-12-14T02:45:17;23.80;;;10.00;;
78614;SDS011;67937;52.488;20.952;2023-12-14T02:47:45;24.50;;;10.30;;
78614;SDS011;67937;52.488;20.952;2023-12-14T02:50:16;24.30;;;9.70;;
78614;SDS011;67937;52.488;20.952;2023-12-14T02:52:44;24.50;;;10.70;;
78614;SDS011;67937;52.488;20.952;2023-12-14T02:55:11;24.00;;;10.90;;
78614;SDS011;67937;52.488;20.952;2023-12-14T02:57:39;26.80;;;12.20;;
78614;SDS011;67937;52.488;20.952;2023-12-14T03:00:07;25.70;;;10.90;;
78614;SDS011;67937;52.488;20.952;2023-12-14T03:02:36;27.70;;;11.10;;
78614;SDS011;67937;52.488;20.952;2023-12-14T03:05:04;24.80;;;10.40;;
78614;SDS011;67937;52.488;20.952;2023-12-14T03:07:33;28.80;;;10.50;;
78614;SDS011;67937;52.488;20.952;2023-12-14T03:10:02;30.90;;;12.70;;
78614;SDS011;67937;52.488;20.952;2023-12-14T03:12:31;32.60;;;13.50;;
78614;SDS011;67937;52.488;20.952;2023-12-14T03:14:58;25.70;;;11.00;;
78614;SDS011;67937;52.488;20.952;2023-12-14T03:17:26;26.30;;;11.20;;
78614;SDS011;67937;52.488;20.952;2023-12-14T03:19:54;24.00;;;10.40;;
78614;SDS011;67937;52.488;20.952;2023-12-14T03:22:23;31.20;;;13.30;;
78614;SDS011;67937;52.488;20.952;2023-12-14T03:24:51;27.40;;;11.50;;
78614;SDS011;67937;52.488;20.952;2023-12-14T03:27:18;26.80;;;10.60;;
78614;SDS011;67937;52.488;20.952;2023-12-14T03:29:49;29.70;;;11.00;;
78614;SDS011;67937;52.488;20.952;2023-12-14T03:32:16;33.20;;;12.60;;
78614;SDS011;67937;52.488;20.952;2023-12-14T03:34:44;32.60;;;11.70;;
78614;SDS011;67937;52.488;20.952;2023-12-14T03:37:12;35.30;;;12.80;;
78614;SDS011;67937;52.488;20.952;2023-12-14T03:39:40;30.30;;;12.60;;
78614;SDS011;67937;52.488;20.952;2023-12-14T03:42:08;29.90;;;10.40;;
78614;SDS011;67937;52.488;20.952;2023-12-14T03:44:36;23.60;;;10.20;;
78614;SDS011;67937;52.488;20.952;2023-12-14T03:47:03;26.30;;;10.50;;
78614;SDS011;67937;52.488;20.952;2023-12-14T03:49:36;23.90;;;10.70;;
78614;SDS011;67937;52.488;20.952;2023-12-14T03:52:05;28.40;;;11.40;;
78614;SDS011;67937;52.488;20.952;2023-12-14T03:54:33;29.90;;;11.30;;
78614;SDS011;67937;52.488;20.952;2023-12-14T03:57:01;24.20;;;9.40;;
78614;SDS011;67937;52.488;20.952;2023-12-14T03:59:29;27.90;;;11.60;;
78614;SDS011;67937;52.488;20.952;2023-12-14T04:01:58;30.10;;;11.40;;
78614;SDS011;67937;52.488;20.952;2023-12-14T04:04:26;27.20;;;11.20;;
78614;SDS011;67937;52.488;20.952;2023-12-14T04:06:54;23.70;;;9.80;;
78614;SDS011;67937;52.488;20.952;2023-12-14T04:09:22;23.70;;;10.60;;
78614;SDS011;67937;52.488;20.952;2023-12-14T04:11:50;26.00;;;11.40;;
78614;SDS011;67937;52.488;20.952;2023-12-14T04:14:18;27.70;;;10.50;;
78614;SDS011;67937;52.488;20.952;2023-12-14T04:16:46;26.20;;;10.50;;
78614;SDS011;67937;52.488;20.952;2023-12-14T04:19:14;25.50;;;10.50;;
78614;SDS011;67937;52.488;20.952;2023-12-14T04:21:41;31.90;;;10.80;;
78614;SDS011;67937;52.488;20.952;2023-12-14T04:24:09;33.10;;;10.50;;
78614;SDS011;67937;52.488;20.952;2023-12-14T04:26:38;27.90;;;10.90;;
78614;SDS011;67937;52.488;20.952;2023-12-14T04:29:06;31.30;;;11.80;;
78614;SDS011;67937;52.488;20.952;2023-12-14T04:31:34;37.60;;;13.10;;
78614;SDS011;67937;52.488;20.952;2023-12-14T04:34:02;34.70;;;15.00;;
78614;SDS011;67937;52.488;20.952;2023-12-14T04:36:30;31.20;;;10.90;;
78614;SDS011;67937;52.488;20.952;2023-12-14T04:38:58;34.30;;;12.10;;
78614;SDS011;67937;52.488;20.952;2023-12-14T04:41:26;33.40;;;11.70;;
78614;SDS011;67937;52.488;20.952;2023-12-14T04:43:54;28.70;;;9.90;;
78614;SDS011;67937;52.488;20.952;2023-12-14T04:46:21;31.00;;;11.40;;
78614;SDS011;67937;52.488;20.952;2023-12-14T04:48:49;32.70;;;11.20;;
78614;SDS011;67937;52.488;20.952;2023-12-14T04:51:17;32.00;;;12.10;;
78614;SDS011;67937;52.488;20.952;2023-12-14T04:53:45;29.40;;;11.40;;
78614;SDS011;67937;52.488;20.952;2023-12-14T04:56:13;31.00;;;11.20;;
78614;SDS011;67937;52.488;20.952;2023-12-14T04:58:41;31.90;;;13.20;;
78614;SDS011;67937;52.488;20.952;2023-12-14T05:01:09;34.80;;;11.80;;
78614;SDS011;67937;52.488;20.952;2023-12-14T05:03:37;25.90;;;10.50;;
78614;SDS011;67937;52.488;20.952;2023-12-14T05:06:05;33.80;;;11.90;;
78614;SDS011;67937;52.488;20.952;2023-12-14T05:08:33;35.30;;;11.20;;
78614;SDS011;67937;52.488;20.952;2023-12-14T05:11:01;37.40;;;14.20;;
78614;SDS011;67937;52.488;20.952;2023-12-14T05:13:29;30.80;;;11.00;;
78614;SDS011;67937;52.488;20.952;2023-12-14T05:15:57;28.90;;;10.50;;
78614;SDS011;67937;52.488;20.952;2023-12-14T05:18:25;31.20;;;11.70;;
78614;SDS011;67937;52.488;20.952;2023-12-14T05:20:53;27.60;;;11.30;;
78614;SDS011;67937;52.488;20.952;2023-12-14T05:23:21;40.20;;;11.50;;
78614;SDS011;67937;52.488;20.952;2023-12-14T05:25:50;25.10;;;10.10;;
78614;SDS011;67937;52.488;20.952;2023-12-14T05:28:18;31.80;;;11.10;;
78614;SDS011;67937;52.488;20.952;2023-12-14T05:30:45;25.20;;;10.40;;
78614;SDS011;67937;52.488;20.952;2023-12-14T05:33:13;32.40;;;10.30;;
78614;SDS011;67937;52.488;20.952;2023-12-14T05:35:41;31.70;;;11.70;;
78614;SDS011;67937;52.488;20.952;2023-12-14T05:38:09;31.70;;;11.10;;
78614;SDS011;67937;52.488;20.952;2023-12-14T05:40:37;29.40;;;11.50;;
78614;SDS011;67937;52.488;20.952;2023-12-14T05:43:06;35.70;;;10.80;;
78614;SDS011;67937;52.488;20.952;2023-12-14T05:45:34;25.00;;;10.50;;
78614;SDS011;67937;52.488;20.952;2023-12-14T05:48:02;27.50;;;11.10;;
78614;SDS011;67937;52.488;20.952;2023-12-14T05:50:31;29.70;;;11.20;;
78614;SDS011;67937;52.488;20.952;2023-12-14T05:52:59;29.30;;;11.40;;
78614;SDS011;67937;52.488;20.952;2023-12-14T05:55:27;27.90;;;9.80;;
78614;SDS011;67937;52.488;20.952;2023-12-14T05:57:55;35.50;;;11.70;;
78614;SDS011;67937;52.488;20.952;2023-12-14T06:00:23;28.60;;;10.70;;
78614;SDS011;67937;52.488;20.952;2023-12-14T06:02:50;30.10;;;10.70;;
78614;SDS011;67937;52.488;20.952;2023-12-14T06:05:18;30.20;;;11.80;;
78614;SDS011;67937;52.488;20.952;2023-12-14T06:07:47;25.30;;;9.40;;
78614;SDS011;67937;52.488;20.952;2023-12-14T06:10:15;25.60;;;11.50;;
78614;SDS011;67937;52.488;20.952;2023-12-14T06:12:43;28.60;;;10.20;;
78614;SDS011;67937;52.488;20.952;2023-12-14T06:15:11;32.20;;;11.10;;
78614;SDS011;67937;52.488;20.952;2023-12-14T06:17:39;30.00;;;11.00;;
78614;SDS011;67937;52.488;20.952;2023-12-14T06:20:08;25.60;;;9.40;;
78614;SDS011;67937;52.488;20.952;2023-12-14T06:22:37;27.70;;;10.50;;
78614;SDS011;67937;52.488;20.952;2023-12-14T06:25:05;29.00;;;10.40;;
78614;SDS011;67937;52.488;20.952;2023-12-14T06:27:33;26.40;;;10.50;;
78614;SDS011;67937;52.488;20.952;2023-12-14T06:30:01;29.40;;;10.70;;
78614;SDS011;67937;52.488;20.952;2023-12-14T06:32:29;25.30;;;9.00;;
78614;SDS011;67937;52.488;20.952;2023-12-14T06:34:57;25.50;;;9.70;;
78614;SDS011;67937;52.488;20.952;2023-12-14T06:37:26;32.70;;;12.40;;
78614;SDS011;67937;52.488;20.952;2023-12-14T06:39:54;31.10;;;11.90;;
78614;SDS011;67937;52.488;20.952;2023-12-14T06:42:21;28.60;;;10.30;;
78614;SDS011;67937;52.488;20.952;2023-12-14T06:44:49;35.90;;;12.10;;
78614;SDS011;67937;52.488;20.952;2023-12-14T06:47:17;27.80;;;10.60;;
78614;SDS011;67937;52.488;20.952;2023-12-14T06:49:45;36.90;;;12.10;;
78614;SDS011;67937;52.488;20.952;2023-12-14T06:52:13;28.80;;;10.60;;
78614;SDS011;67937;52.488;20.952;2023-12-14T06:54:41;32.90;;;10.20;;
78614;SDS011;67937;52.488;20.952;2023-12-14T06:57:09;27.70;;;9.20;;
78614;SDS011;67937;52.488;20.952;2023-12-14T06:59:37;23.80;;;10.50;;
78614;SDS011;67937;52.488;20.952;2023-12-14T07:02:05;25.50;;;9.70;;
78614;SDS011;67937;52.488;20.952;2023-12-14T07:04:34;28.00;;;10.00;;
78614;SDS011;67937;52.488;20.952;2023-12-14T07:07:02;29.50;;;10.70;;
78614;SDS011;67937;52.488;20.952;2023-12-14T07:09:30;29.30;;;9.40;;
78614;SDS011;67937;52.488;20.952;2023-12-14T07:11:58;33.40;;;12.50;;
78614;SDS011;67937;52.488;20.952;2023-12-14T07:14:29;25.00;;;10.50;;
78614;SDS011;67937;52.488;20.952;2023-12-14T07:16:57;32.60;;;10.20;;
78614;SDS011;67937;52.488;20.952;2023-12-14T07:19:24;31.50;;;10.90;;
78614;SDS011;67937;52.488;20.952;2023-12-14T07:21:52;27.20;;;9.40;;
78614;SDS011;67937;52.488;20.952;2023-12-14T07:24:20;37.10;;;12.10;;
78614;SDS011;67937;52.488;20.952;2023-12-14T07:26:48;31.70;;;11.50;;
78614;SDS011;67937;52.488;20.952;2023-12-14T07:29:16;32.30;;;11.20;;
78614;SDS011;67937;52.488;20.952;2023-12-14T07:31:44;35.90;;;10.50;;
78614;SDS011;67937;52.488;20.952;2023-12-14T07:34:12;33.00;;;11.00;;
78614;SDS011;67937;52.488;20.952;2023-12-14T07:36:40;31.10;;;12.80;;
78614;SDS011;67937;52.488;20.952;2023-12-14T07:39:08;33.80;;;12.00;;
78614;SDS011;67937;52.488;20.952;2023-12-14T07:41:36;30.00;;;11.20;;
78614;SDS011;67937;52.488;20.952;2023-12-14T07:44:04;31.70;;;10.60;;
78614;SDS011;67937;52.488;20.952;2023-12-14T07:46:32;29.50;;;9.40;;
78614;SDS011;67937;52.488;20.952;2023-12-14T07:49:01;33.20;;;11.20;;
78614;SDS011;67937;52.488;20.952;2023-12-14T07:51:29;30.90;;;10.70;;
78614;SDS011;67937;52.488;20.952;2023-12-14T07:53:57;30.80;;;11.20;;
78614;SDS011;67937;52.488;20.952;2023-12-14T07:56:25;27.50;;;9.80;;
78614;SDS011;67937;52.488;20.952;2023-12-14T07:58:54;30.90;;;10.70;;
78614;SDS011;67937;52.488;20.952;2023-12-14T08:01:22;26.60;;;8.50;;
78614;SDS011;67937;52.488;20.952;2023-12-14T08:03:50;24.60;;;10.30;;
78614;SDS011;67937;52.488;20.952;2023-12-14T08:06:18;25.90;;;9.90;;
78614;SDS011;67937;52.488;20.952;2023-12-14T08:08:46;27.50;;;10.20;;
78614;SDS011;67937;52.488;20.952;2023-12-14T08:11:13;27.30;;;9.10;;
78614;SDS011;67937;52.488;20.952;2023-12-14T08:13:41;28.80;;;9.50;;
78614;SDS011;67937;52.488;20.952;2023-12-14T08:16:10;26.80;;;11.10;;
78614;SDS011;67937;52.488;20.952;2023-12-14T08:18:38;24.10;;;9.10;;
78614;SDS011;67937;52.488;20.952;2023-12-14T08:21:07;26.50;;;10.30;;
78614;SDS011;67937;52.488;20.952;2023-12-14T08:23:35;27.60;;;9.80;;
78614;SDS011;67937;52.488;20.952;2023-12-14T08:26:03;29.20;;;10.50;;
78614;SDS011;67937;52.488;20.952;2023-12-14T08:28:31;24.10;;;9.90;;
78614;SDS011;67937;52.488;20.952;2023-12-14T08:30:59;30.60;;;10.50;;
78614;SDS011;67937;52.488;20.952;2023-12-14T08:33:28;27.40;;;9.60;;
78614;SDS011;67937;52.488;20.952;2023-12-14T08:35:56;24.30;;;9.60;;
78614;SDS011;67937;52.488;20.952;2023-12-14T08:38:25;22.40;;;9.60;;
78614;SDS011;67937;52.488;20.952;2023-12-14T08:40:53;23.70;;;9.00;;
78614;SDS011;67937;52.488;20.952;2023-12-14T08:43:21;29.00;;;10.10;;
78614;SDS011;67937;52.488;20.952;2023-12-14T08:45:49;26.60;;;10.10;;
78614;SDS011;67937;52.488;20.952;2023-12-14T08:48:17;26.80;;;9.90;;
78614;SDS011;67937;52.488;20.952;2023-12-14T08:50:45;22.00;;;9.20;;
78614;SDS011;67937;52.488;20.952;2023-12-14T08:53:14;25.50;;;9.80;;
78614;SDS011;67937;52.488;20.952;2023-12-14T08:55:42;26.10;;;9.10;;
78614;SDS011;67937;52.488;20.952;2023-12-14T08:58:10;23.40;;;9.60;;
78614;SDS011;67937;52.488;20.952;2023-12-14T09:00:38;19.70;;;8.20;;
78614;SDS011;67937;52.488;20.952;2023-12-14T09:03:06;22.40;;;9.30;;
78614;SDS011;67937;52.488;20.952;2023-12-14T09:05:34;28.40;;;9.00;;
78614;SDS011;67937;52.488;20.952;2023-12-14T09:08:03;24.50;;;9.30;;
78614;SDS011;67937;52.488;20.952;2023-12-14T09:10:31;22.80;;;8.50;;
78614;SDS011;67937;52.488;20.952;2023-12-14T09:13:00;29.70;;;9.10;;
78614;SDS011;67937;52.488;20.952;2023-12-14T09:15:33;20.00;;;8.80;;
78614;SDS011;67937;52.488;20.952;2023-12-14T09:20:29;28.00;;;9.40;;
78614;SDS011;67937;52.488;20.952;2023-12-14T09:22:57;25.20;;;8.50;;
78614;SDS011;67937;52.488;20.952;2023-12-14T09:25:25;25.60;;;7.60;;
78614;SDS011;67937;52.488;20.952;2023-12-14T09:27:53;25.30;;;9.30;;
78614;SDS011;67937;52.488;20.952;2023-12-14T09:30:21;24.50;;;9.00;;
78614;SDS011;67937;52.488;20.952;2023-12-14T09:32:49;23.80;;;8.90;;
78614;SDS011;67937;52.488;20.952;2023-12-14T09:35:17;27.20;;;10.20;;
78614;SDS011;67937;52.488;20.952;2023-12-14T09:37:45;29.70;;;11.30;;
78614;SDS011;67937;52.488;20.952;2023-12-14T09:40:13;33.30;;;9.80;;
78614;SDS011;67937;52.488;20.952;2023-12-14T09:42:43;23.60;;;8.30;;
78614;SDS011;67937;52.488;20.952;2023-12-14T09:45:11;26.40;;;10.10;;
78614;SDS011;67937;52.488;20.952;2023-12-14T09:47:40;19.80;;;8.50;;
78614;SDS011;67937;52.488;20.952;2023-12-14T09:50:09;22.10;;;8.40;;
78614;SDS011;67937;52.488;20.952;2023-12-14T09:52:37;21.60;;;8.70;;
78614;SDS011;67937;52.488;20.952;2023-12-14T09:55:05;22.10;;;9.00;;
78614;SDS011;67937;52.488;20.952;2023-12-14T09:57:34;24.30;;;9.00;;
78614;SDS011;67937;52.488;20.952;2023-12-14T10:00:02;26.30;;;8.50;;
78614;SDS011;67937;52.488;20.952;2023-12-14T10:02:32;27.00;;;8.90;;
78614;SDS011;67937;52.488;20.952;2023-12-14T10:05:00;28.20;;;8.50;;
78614;SDS011;67937;52.488;20.952;2023-12-14T10:07:28;21.90;;;8.00;;
78614;SDS011;67937;52.488;20.952;2023-12-14T10:10:11;27.10;;;8.70;;
78614;SDS011;67937;52.488;20.952;2023-12-14T10:12:51;26.30;;;9.30;;
78614;SDS011;67937;52.488;20.952;2023-12-14T10:15:22;22.60;;;8.00;;
78614;SDS011;67937;52.488;20.952;2023-12-14T10:17:51;20.60;;;7.80;;
78614;SDS011;67937;52.488;20.952;2023-12-14T10:20:21;21.60;;;8.30;;
78614;SDS011;67937;52.488;20.952;2023-12-14T10:22:50;20.30;;;8.30;;
78614;SDS011;67937;52.488;20.952;2023-12-14T10:25:18;21.60;;;8.60;;
78614;SDS011;67937;52.488;20.952;2023-12-14T10:27:47;20.30;;;7.30;;
78614;SDS011;67937;52.488;20.952;2023-12-14T10:30:15;18.10;;;7.30;;
78614;SDS011;67937;52.488;20.952;2023-12-14T10:32:43;17.30;;;7.30;;
78614;SDS011;67937;52.488;20.952;2023-12-14T10:35:11;15.40;;;6.90;;
78614;SDS011;67937;52.488;20.952;2023-12-14T10:37:42;19.50;;;8.30;;
78614;SDS011;67937;52.488;20.952;2023-12-14T10:40:11;22.70;;;7.80;;
78614;SDS011;67937;52.488;20.952;2023-12-14T10:42:42;21.80;;;9.30;;
78614;SDS011;67937;52.488;20.952;2023-12-14T10:45:12;17.90;;;8.30;;
78614;SDS011;67937;52.488;20.952;2023-12-14T10:47:43;18.70;;;8.60;;
78614;SDS011;67937;52.488;20.952;2023-12-14T10:50:11;20.20;;;8.00;;
78614;SDS011;67937;52.488;20.952;2023-12-14T10:52:40;20.70;;;8.20;;
78614;SDS011;67937;52.488;20.952;2023-12-14T10:55:18;15.40;;;7.20;;
78614;SDS011;67937;52.488;20.952;2023-12-14T10:57:52;17.30;;;7.80;;
78614;SDS011;67937;52.488;20.952;2023-12-14T11:00:20;21.60;;;8.30;;
78614;SDS011;67937;52.488;20.952;2023-12-14T11:02:48;15.10;;;7.00;;
78614;SDS011;67937;52.488;20.952;2023-12-14T11:05:16;18.40;;;8.40;;
78614;SDS011;67937;52.488;20.952;2023-12-14T11:07:50;23.80;;;8.50;;
78614;SDS011;67937;52.488;20.952;2023-12-14T11:10:22;21.60;;;9.00;;
78614;SDS011;67937;52.488;20.952;2023-12-14T11:13:10;20.90;;;8.60;;
78614;SDS011;67937;52.488;20.952;2023-12-14T11:15:41;28.10;;;11.10;;
78614;SDS011;67937;52.488;20.952;2023-12-14T11:23:14;20.30;;;9.00;;
78614;SDS011;67937;52.488;20.952;2023-12-14T11:25:44;26.30;;;9.30;;
78614;SDS011;67937;52.488;20.952;2023-12-14T11:28:15;24.60;;;9.30;;
78614;SDS011;67937;52.488;20.952;2023-12-14T11:30:44;20.50;;;10.00;;
78614;SDS011;67937;52.488;20.952;2023-12-14T11:33:12;23.30;;;9.10;;
78614;SDS011;67937;52.488;20.952;2023-12-14T11:35:41;17.70;;;8.50;;
78614;SDS011;67937;52.488;20.952;2023-12-14T11:38:10;20.30;;;8.40;;
78614;SDS011;67937;52.488;20.952;2023-12-14T11:40:39;21.80;;;8.70;;
78614;SDS011;67937;52.488;20.952;2023-12-14T11:43:08;27.50;;;8.90;;
78614;SDS011;67937;52.488;20.952;2023-12-14T11:45:36;20.00;;;8.30;;
78614;SDS011;67937;52.488;20.952;2023-12-14T11:48:09;23.20;;;9.00;;
78614;SDS011;67937;52.488;20.952;2023-12-14T11:50:39;24.40;;;9.00;;
78614;SDS011;67937;52.488;20.952;2023-12-14T11:53:09;22.80;;;8.50;;
78614;SDS011;67937;52.488;20.952;2023-12-14T11:55:38;20.30;;;8.80;;
78614;SDS011;67937;52.488;20.952;2023-12-14T11:58:08;20.20;;;9.20;;
78614;SDS011;67937;52.488;20.952;2023-12-14T12:00:36;23.10;;;9.50;;
78614;SDS011;67937;52.488;20.952;2023-12-14T12:03:08;20.90;;;9.40;;
78614;SDS011;67937;52.488;20.952;2023-12-14T12:05:39;19.90;;;8.00;;
78614;SDS011;67937;52.488;20.952;2023-12-14T12:08:12;23.60;;;10.30;;
78614;SDS011;67937;52.488;20.952;2023-12-14T12:10:42;29.60;;;9.70;;
78614;SDS011;67937;52.488;20.952;2023-12-14T12:13:11;21.40;;;8.70;;
78614;SDS011;67937;52.488;20.952;2023-12-14T12:15:41;22.80;;;9.50;;
78614;SDS011;67937;52.488;20.952;2023-12-14T12:18:10;20.80;;;8.30;;
78614;SDS011;67937;52.488;20.952;2023-12-14T12:20:39;25.00;;;9.50;;
78614;SDS011;67937;52.488;20.952;2023-12-14T12:23:08;22.30;;;8.70;;
78614;SDS011;67937;52.488;20.952;2023-12-14T12:25:36;25.10;;;10.40;;
78614;SDS011;67937;52.488;20.952;2023-12-14T12:28:04;23.50;;;11.10;;
78614;SDS011;67937;52.488;20.952;2023-12-14T12:30:32;25.40;;;9.80;;
78614;SDS011;67937;52.488;20.952;2023-12-14T12:33:00;25.30;;;10.20;;
78614;SDS011;67937;52.488;20.952;2023-12-14T12:35:28;26.00;;;10.20;;
78614;SDS011;67937;52.488;20.952;2023-12-14T12:37:57;22.10;;;9.10;;
78614;SDS011;67937;52.488;20.952;2023-12-14T12:40:25;25.00;;;10.10;;
78614;SDS011;67937;52.488;20.952;2023-12-14T12:42:53;23.10;;;8.50;;
78614;SDS011;67937;52.488;20.952;2023-12-14T12:45:21;23.40;;;10.90;;
78614;SDS011;67937;52.488;20.952;2023-12-14T12:47:52;29.10;;;10.30;;
78614;SDS011;67937;52.488;20.952;2023-12-14T12:50:20;20.70;;;10.20;;
78614;SDS011;67937;52.488;20.952;2023-12-14T12:52:48;21.20;;;9.30;;
78614;SDS011;67937;52.488;20.952;2023-12-14T12:55:17;25.70;;;9.20;;
78614;SDS011;67937;52.488;20.952;2023-12-14T12:57:45;27.30;;;10.20;;
78614;SDS011;67937;52.488;20.952;2023-12-14T13:00:13;21.50;;;9.20;;
78614;SDS011;67937;52.488;20.952;2023-12-14T13:02:42;20.60;;;8.50;;
78614;SDS011;67937;52.488;20.952;2023-12-14T13:05:12;20.40;;;9.70;;
78614;SDS011;67937;52.488;20.952;2023-12-14T13:07:43;22.40;;;9.00;;
78614;SDS011;67937;52.488;20.952;2023-12-14T13:10:13;21.20;;;9.00;;
78614;SDS011;67937;52.488;20.952;2023-12-14T13:12:41;20.10;;;8.10;;
78614;SDS011;67937;52.488;20.952;2023-12-14T13:15:09;19.50;;;7.90;;
78614;SDS011;67937;52.488;20.952;2023-12-14T13:17:37;20.20;;;8.60;;
78614;SDS011;67937;52.488;20.952;2023-12-14T13:20:05;21.40;;;8.60;;
78614;SDS011;67937;52.488;20.952;2023-12-14T13:22:35;20.40;;;8.40;;
78614;SDS011;67937;52.488;20.952;2023-12-14T13:25:03;23.40;;;8.30;;
78614;SDS011;67937;52.488;20.952;2023-12-14T13:27:31;21.70;;;9.80;;
78614;SDS011;67937;52.488;20.952;2023-12-14T13:30:03;19.80;;;8.60;;
78614;SDS011;67937;52.488;20.952;2023-12-14T13:32:32;20.20;;;9.00;;
78614;SDS011;67937;52.488;20.952;2023-12-14T13:35:00;26.60;;;9.80;;
78614;SDS011;67937;52.488;20.952;2023-12-14T13:37:28;23.70;;;9.10;;
78614;SDS011;67937;52.488;20.952;2023-12-14T13:39:56;20.90;;;8.30;;
78614;SDS011;67937;52.488;20.952;2023-12-14T13:42:24;23.10;;;9.10;;
78614;SDS011;67937;52.488;20.952;2023-12-14T13:44:52;20.90;;;9.50;;
78614;SDS011;67937;52.488;20.952;2023-12-14T13:47:20;22.40;;;10.00;;
78614;SDS011;67937;52.488;20.952;2023-12-14T13:49:49;21.90;;;10.40;;
78614;SDS011;67937;52.488;20.952;2023-12-14T13:52:17;22.30;;;8.50;;
78614;SDS011;67937;52.488;20.952;2023-12-14T13:54:45;25.90;;;9.60;;
78614;SDS011;67937;52.488;20.952;2023-12-14T13:57:13;24.90;;;9.00;;
78614;SDS011;67937;52.488;20.952;2023-12-14T13:59:41;27.80;;;10.80;;
78614;SDS011;67937;52.488;20.952;2023-12-14T14:02:08;25.50;;;8.60;;
78614;SDS011;67937;52.488;20.952;2023-12-14T14:04:37;20.90;;;10.00;;
78614;SDS011;67937;52.488;20.952;2023-12-14T14:07:05;21.80;;;8.50;;
78614;SDS011;67937;52.488;20.952;2023-12-14T14:09:34;20.90;;;8.60;;
78614;SDS011;67937;52.488;20.952;2023-12-14T14:12:02;23.70;;;9.90;;
78614;SDS011;67937;52.488;20.952;2023-12-14T14:14:30;25.30;;;9.00;;
78614;SDS011;67937;52.488;20.952;2023-12-14T14:16:58;26.80;;;9.00;;
78614;SDS011;67937;52.488;20.952;2023-12-14T14:19:26;20.10;;;9.30;;
78614;SDS011;67937;52.488;20.952;2023-12-14T14:21:54;23.70;;;8.60;;
78614;SDS011;67937;52.488;20.952;2023-12-14T14:24:22;25.40;;;9.60;;
78614;SDS011;67937;52.488;20.952;2023-12-14T14:26:50;25.40;;;10.10;;
78614;SDS011;67937;52.488;20.952;2023-12-14T14:29:18;26.10;;;9.50;;
78614;SDS011;67937;52.488;20.952;2023-12-14T14:31:46;24.60;;;9.40;;